Terminal Aerodrome Forecast
Issued by NWS Sioux Falls, SD

Home | Current Version | Previous Version | Text Only | Print | Product List | Glossary On
Versions: 1 2 3 4 5 6 7 8 9 10 11 12
819
FTUS43 KFSD 190521
TAFHON
TAF
KHON 190521Z 1906/2006 17005KT P6SM FEW200
     FM191300 17012KT P6SM SKC
     FM191800 18014G22KT P6SM SKC
     FM192300 16011KT P6SM SKC
     FM200400 16012G20KT P6SM SKC=

USA.gov is the U.S. government's official web portal to all federal, state and local government web resources and services.